createdAt,value
2017-10-12T00:00:50.990Z,89.60
2017-10-12T00:03:19.258Z,90.00
2017-10-12T00:05:47.600Z,90.50
2017-10-12T00:08:15.178Z,90.50
2017-10-12T00:10:42.730Z,90.30
2017-10-12T00:13:10.242Z,90.10
2017-10-12T00:15:37.766Z,89.90
2017-10-12T00:18:06.069Z,89.60
2017-10-12T00:20:34.363Z,89.40
2017-10-12T00:23:02.674Z,89.10
2017-10-12T00:25:30.229Z,89.10
2017-10-12T00:27:57.760Z,89.50
2017-10-12T00:30:26.076Z,90.20
2017-10-12T00:32:53.586Z,90.20
2017-10-12T00:35:21.089Z,89.40
2017-10-12T00:37:48.611Z,89.50
2017-10-12T00:40:16.145Z,90.00
2017-10-12T00:42:43.672Z,89.70
2017-10-12T00:45:11.195Z,90.00
2017-10-12T00:47:38.750Z,89.70
2017-10-12T00:50:06.255Z,90.50
2017-10-12T00:52:33.775Z,91.50
2017-10-12T00:55:01.276Z,92.20
2017-10-12T00:57:28.859Z,92.80
2017-10-12T00:59:57.145Z,95.50
2017-10-12T01:02:25.490Z,95.40
2017-10-12T01:04:53.029Z,95.40
2017-10-12T01:07:20.546Z,95.50
2017-10-12T01:09:48.829Z,96.00
2017-10-12T01:12:17.145Z,96.40
2017-10-12T01:14:44.661Z,96.40
2017-10-12T01:17:13.004Z,97.20
2017-10-12T01:19:41.162Z,97.20
2017-10-12T01:22:08.672Z,97.40
2017-10-12T01:24:36.984Z,97.20
2017-10-12T01:27:04.548Z,97.20
2017-10-12T01:29:32.051Z,97.20
2017-10-12T01:31:59.550Z,97.20
2017-10-12T01:34:27.065Z,97.30
2017-10-12T01:36:54.595Z,96.90
2017-10-12T01:39:22.105Z,97.00
2017-10-12T01:41:50.428Z,97.60
2017-10-12T01:44:17.933Z,97.60
2017-10-12T01:46:46.214Z,97.90
2017-10-12T01:49:14.491Z,97.70
2017-10-12T01:51:42.801Z,98.10
2017-10-12T01:54:10.321Z,98.10
2017-10-12T01:56:38.620Z,98.30
2017-10-12T01:59:06.175Z,98.30
2017-10-12T02:01:33.700Z,98.80
2017-10-12T02:04:01.221Z,98.80
2017-10-12T02:06:28.774Z,99.30
2017-10-12T02:08:56.290Z,99.90
2017-10-12T02:11:24.601Z,99.60
2017-10-12T02:13:52.109Z,99.60
2017-10-12T02:16:19.638Z,99.80
2017-10-12T02:18:47.157Z,99.80
2017-10-12T02:21:15.486Z,99.90
2017-10-12T02:23:43.012Z,99.90
2017-10-12T02:26:10.520Z,99.90
2017-10-12T02:28:38.041Z,99.90
2017-10-12T02:31:05.573Z,99.90
2017-10-12T02:33:33.163Z,99.90
2017-10-12T02:36:00.691Z,99.80
2017-10-12T02:38:29.000Z,99.30
2017-10-12T02:40:56.523Z,99.20
2017-10-12T02:43:24.818Z,99.40
2017-10-12T02:45:52.336Z,99.40
2017-10-12T02:48:19.863Z,99.10
2017-10-12T02:50:47.402Z,99.10
2017-10-12T02:53:14.950Z,98.80
2017-10-12T02:55:43.228Z,99.00
2017-10-12T02:58:11.505Z,98.60
2017-10-12T03:00:39.046Z,98.60
2017-10-12T03:03:06.591Z,99.10
2017-10-12T03:05:34.119Z,98.70
2017-10-12T03:08:01.680Z,98.50
2017-10-12T03:10:29.236Z,98.20
2017-10-12T03:12:56.781Z,98.10
2017-10-12T03:15:24.325Z,98.10
2017-10-12T03:17:52.622Z,98.70
2017-10-12T03:20:20.311Z,98.70
2017-10-12T03:22:47.850Z,98.30
2017-10-12T03:25:15.398Z,98.30
2017-10-12T03:27:42.909Z,97.80
2017-10-12T03:30:10.433Z,97.70
2017-10-12T03:32:37.986Z,97.60
2017-10-12T03:35:05.513Z,98.10
2017-10-12T03:37:33.803Z,98.40
2017-10-12T03:40:01.317Z,98.40
2017-10-12T03:42:28.858Z,98.50
2017-10-12T03:44:56.379Z,97.90
2017-10-12T03:47:24.668Z,97.50
2017-10-12T03:49:52.179Z,97.50
2017-10-12T03:52:19.710Z,97.80
2017-10-12T03:54:47.233Z,97.60
2017-10-12T03:57:15.526Z,97.30
2017-10-12T03:59:43.020Z,97.30
2017-10-12T04:02:10.532Z,96.80
2017-10-12T04:04:38.064Z,96.80
2017-10-12T04:07:05.618Z,96.90
2017-10-12T04:09:33.103Z,96.80
2017-10-12T04:12:01.364Z,97.00
2017-10-12T04:14:29.666Z,97.60
2017-10-12T04:16:57.169Z,97.50
2017-10-12T04:19:24.718Z,97.10
2017-10-12T04:21:52.209Z,97.40
2017-10-12T04:24:19.729Z,96.80
2017-10-12T04:26:47.292Z,96.90
2017-10-12T04:29:14.854Z,96.80
2017-10-12T04:31:42.389Z,96.90
2017-10-12T04:34:09.913Z,96.50
2017-10-12T04:36:37.422Z,96.80
2017-10-12T04:39:04.949Z,96.50
2017-10-12T04:41:33.340Z,96.00
2017-10-12T04:44:00.889Z,96.00
2017-10-12T04:46:29.176Z,96.90
2017-10-12T04:48:57.456Z,97.10
2017-10-12T04:51:24.987Z,97.10
2017-10-12T04:53:53.315Z,94.70
2017-10-12T04:56:20.841Z,94.60
2017-10-12T04:58:49.118Z,94.50
2017-10-12T05:01:17.435Z,94.90
2017-10-12T05:03:44.961Z,94.90
2017-10-12T05:06:12.472Z,94.10
2017-10-12T05:08:39.996Z,93.70
2017-10-12T05:11:07.515Z,93.10
2017-10-12T05:13:35.789Z,91.90
2017-10-12T05:16:03.309Z,91.90
2017-10-12T05:18:30.843Z,91.50
2017-10-12T05:20:58.380Z,91.60
2017-10-12T05:23:26.772Z,91.50
2017-10-12T05:25:54.285Z,91.50
2017-10-12T05:28:21.798Z,91.10
2017-10-12T05:30:49.366Z,91.70
2017-10-12T05:33:16.970Z,92.00
2017-10-12T05:35:44.501Z,92.10
2017-10-12T05:38:12.017Z,92.50
2017-10-12T05:40:39.529Z,92.40
2017-10-12T05:43:07.041Z,92.20
2017-10-12T05:45:34.650Z,92.40
2017-10-12T05:48:02.183Z,92.50
2017-10-12T05:50:29.694Z,92.50
2017-10-12T05:52:57.230Z,92.10
2017-10-12T05:55:24.722Z,92.80
2017-10-12T05:57:53.333Z,92.70
2017-10-12T06:00:20.940Z,92.50
2017-10-12T06:02:48.452Z,92.90
2017-10-12T06:05:16.005Z,92.80
2017-10-12T06:07:44.293Z,92.90
2017-10-12T06:10:11.829Z,92.80
2017-10-12T06:12:40.134Z,93.10
2017-10-12T06:15:07.673Z,93.10
2017-10-12T06:17:35.966Z,93.10
2017-10-12T06:20:03.544Z,93.10
2017-10-12T06:22:31.065Z,93.30
2017-10-12T06:24:59.385Z,92.60
2017-10-12T06:27:26.887Z,92.60
2017-10-12T06:29:54.409Z,93.40
2017-10-12T06:32:21.933Z,93.60
2017-10-12T06:34:49.468Z,92.80
2017-10-12T06:37:16.981Z,92.20
2017-10-12T06:39:44.535Z,92.20
2017-10-12T06:42:12.056Z,92.30
2017-10-12T06:44:41.278Z,92.10
2017-10-12T06:47:08.809Z,92.00
2017-10-12T06:49:37.146Z,92.10
2017-10-12T06:52:04.645Z,92.10
2017-10-12T06:54:33.017Z,92.30
2017-10-12T06:57:00.540Z,92.20
2017-10-12T06:59:28.098Z,91.60
2017-10-12T07:01:55.611Z,91.20
2017-10-12T07:04:23.892Z,90.90
2017-10-12T07:06:52.167Z,90.70
2017-10-12T07:09:20.451Z,90.50
2017-10-12T07:11:48.730Z,91.40
2017-10-12T07:14:16.358Z,91.40
2017-10-12T07:16:43.873Z,90.90
2017-10-12T07:19:11.399Z,90.30
2017-10-12T07:21:39.685Z,91.10
2017-10-12T07:24:08.004Z,91.40
2017-10-12T07:26:35.633Z,91.40
2017-10-12T07:29:03.158Z,90.40
2017-10-12T07:31:30.677Z,90.50
2017-10-12T07:33:58.245Z,90.70
2017-10-12T07:36:25.802Z,90.60
2017-10-12T07:38:53.337Z,90.70
2017-10-12T07:41:20.859Z,90.00
2017-10-12T07:43:48.393Z,90.20
2017-10-12T07:46:15.942Z,89.40
2017-10-12T07:48:43.448Z,89.40
2017-10-12T07:51:11.793Z,89.50
2017-10-12T07:53:39.309Z,89.40
2017-10-12T07:56:06.844Z,87.20
2017-10-12T07:58:35.253Z,89.70
2017-10-12T08:01:03.154Z,89.70
2017-10-12T08:03:30.692Z,89.20
2017-10-12T08:05:58.221Z,88.60
2017-10-12T08:08:26.493Z,87.80
2017-10-12T08:10:54.057Z,87.80
2017-10-12T08:13:22.337Z,90.00
2017-10-12T08:15:50.712Z,89.70
2017-10-12T08:18:18.990Z,89.30
2017-10-12T08:20:47.277Z,88.80
2017-10-12T08:23:15.589Z,88.80
2017-10-12T08:25:43.109Z,88.70
2017-10-12T08:28:11.385Z,86.30
2017-10-12T08:30:38.979Z,86.30
2017-10-12T08:33:06.475Z,88.70
2017-10-12T08:35:34.067Z,87.90
2017-10-12T08:38:01.619Z,88.50
2017-10-12T08:40:29.190Z,88.10
2017-10-12T08:42:56.696Z,88.20
2017-10-12T08:45:24.220Z,87.60
2017-10-12T08:47:51.721Z,87.00
2017-10-12T08:50:19.267Z,86.50
2017-10-12T08:52:46.773Z,85.90
2017-10-12T08:55:14.355Z,84.20
2017-10-12T08:57:41.861Z,84.80
2017-10-12T09:00:09.383Z,84.10
2017-10-12T09:02:36.884Z,84.90
2017-10-12T09:05:04.428Z,86.40
2017-10-12T09:07:31.976Z,86.80
2017-10-12T09:09:59.502Z,86.60
2017-10-12T09:12:27.028Z,84.70
2017-10-12T09:14:54.569Z,84.90
2017-10-12T09:17:23.717Z,83.10
2017-10-12T09:19:51.250Z,83.10
2017-10-12T09:22:18.770Z,81.10
2017-10-12T09:24:46.299Z,82.30
2017-10-12T09:27:13.801Z,82.40
2017-10-12T09:29:41.658Z,78.50
2017-10-12T09:32:09.197Z,80.70
2017-10-12T09:34:36.708Z,78.70
2017-10-12T09:37:04.243Z,79.60
2017-10-12T09:39:31.774Z,78.40
2017-10-12T09:41:59.304Z,76.20
2017-10-12T09:44:27.641Z,73.70
2017-10-12T09:46:55.169Z,73.70
2017-10-12T09:49:22.677Z,73.00
2017-10-12T09:51:50.205Z,70.80
2017-10-12T09:54:17.735Z,71.10
2017-10-12T09:56:45.271Z,72.30
2017-10-12T09:59:13.562Z,74.40
2017-10-12T10:01:41.641Z,74.10
2017-10-12T10:04:09.132Z,76.00
2017-10-12T10:06:36.699Z,75.60
2017-10-12T10:09:04.235Z,74.60
2017-10-12T10:11:31.858Z,75.70
2017-10-12T10:14:00.137Z,75.90
2017-10-12T10:16:28.449Z,75.30
2017-10-12T10:18:56.029Z,75.20
2017-10-12T10:21:23.576Z,75.10
2017-10-12T10:23:51.093Z,76.00
2017-10-12T10:26:19.372Z,73.70
2017-10-12T10:28:47.650Z,69.70
2017-10-12T10:31:15.925Z,69.00
2017-10-12T10:33:44.202Z,70.80
2017-10-12T10:36:12.485Z,68.20
2017-10-12T10:38:41.741Z,70.40
2017-10-12T10:41:09.285Z,70.40
2017-10-12T10:43:36.818Z,70.00
2017-10-12T10:46:05.105Z,67.00
2017-10-12T10:48:32.608Z,66.90
2017-10-12T10:51:00.137Z,63.70
2017-10-12T10:53:27.691Z,64.50
2017-10-12T10:55:55.226Z,64.70
2017-10-12T10:58:23.500Z,61.60
2017-10-12T11:00:51.794Z,58.40
2017-10-12T11:03:19.359Z,58.40
2017-10-12T11:05:47.042Z,58.10
2017-10-12T11:08:14.548Z,56.10
2017-10-12T11:10:42.854Z,53.70
2017-10-12T11:13:10.427Z,53.70
2017-10-12T11:15:37.957Z,51.90
2017-10-12T11:18:06.225Z,53.00
2017-10-12T11:20:34.518Z,54.60
2017-10-12T11:23:02.800Z,55.10
2017-10-12T11:25:30.307Z,55.00
2017-10-12T11:27:57.828Z,55.80
2017-10-12T11:30:25.358Z,57.00
2017-10-12T11:32:54.464Z,59.60
2017-10-12T11:35:22.768Z,59.10
2017-10-12T11:37:50.570Z,59.10
2017-10-12T11:40:18.642Z,57.60
2017-10-12T11:42:46.275Z,56.30
2017-10-12T11:45:13.832Z,59.70
2017-10-12T11:47:41.848Z,57.60
2017-10-12T11:50:09.379Z,56.70
2017-10-12T11:52:36.934Z,55.70
2017-10-12T11:55:04.460Z,55.50
2017-10-12T11:57:32.004Z,55.60
2017-10-12T12:00:00.277Z,58.60
2017-10-12T12:02:28.585Z,59.60
2017-10-12T12:04:56.157Z,59.50
2017-10-12T12:07:23.702Z,59.00
2017-10-12T12:09:51.201Z,58.30
2017-10-12T12:12:18.807Z,56.70
2017-10-12T12:14:47.082Z,57.60
2017-10-12T12:17:15.383Z,59.40
2017-10-12T12:19:42.881Z,59.40
2017-10-12T12:22:10.410Z,57.30
2017-10-12T12:24:37.937Z,56.70
2017-10-12T12:27:06.221Z,57.40
2017-10-12T12:29:34.498Z,56.20
2017-10-12T12:32:02.054Z,56.20
2017-10-12T12:34:29.564Z,55.20
2017-10-12T12:36:57.137Z,55.50
2017-10-12T12:39:24.642Z,56.40
2017-10-12T12:41:52.194Z,56.50
2017-10-12T12:44:19.725Z,55.40
2017-10-12T12:46:47.247Z,54.10
2017-10-12T12:49:14.777Z,52.60
2017-10-12T12:51:42.303Z,50.40
2017-10-12T12:54:09.810Z,52.40
2017-10-12T12:56:37.370Z,52.80
2017-10-12T12:59:04.881Z,52.90
2017-10-12T13:01:32.417Z,51.60
2017-10-12T13:03:59.955Z,52.30
2017-10-12T13:06:27.506Z,51.40
2017-10-12T13:08:55.033Z,51.10
2017-10-12T13:11:23.312Z,51.00
2017-10-12T13:13:51.632Z,47.90
2017-10-12T13:16:19.144Z,47.80
2017-10-12T13:18:46.699Z,48.90
2017-10-12T13:21:14.983Z,49.90
2017-10-12T13:23:42.545Z,49.90
2017-10-12T13:26:10.049Z,49.30
2017-10-12T13:28:37.569Z,51.30
2017-10-12T13:31:05.849Z,53.30
2017-10-12T13:33:34.178Z,53.70
2017-10-12T13:36:01.699Z,53.70
2017-10-12T13:38:30.009Z,55.70
2017-10-12T13:40:57.566Z,55.60
2017-10-12T13:43:25.114Z,56.20
2017-10-12T13:45:52.624Z,55.70
2017-10-12T13:48:20.173Z,56.00
2017-10-12T13:50:47.725Z,54.00
2017-10-12T13:53:15.256Z,52.80
2017-10-12T13:55:42.783Z,52.90
2017-10-12T13:58:10.345Z,53.00
2017-10-12T14:00:38.293Z,54.00
2017-10-12T14:03:05.832Z,54.10
2017-10-12T14:05:33.362Z,54.90
2017-10-12T14:08:00.941Z,54.50
2017-10-12T14:10:28.461Z,55.20
2017-10-12T14:12:55.989Z,56.50
2017-10-12T14:15:23.485Z,55.70
2017-10-12T14:17:51.037Z,55.20
2017-10-12T14:20:18.559Z,55.20
2017-10-12T14:22:46.880Z,56.00
2017-10-12T14:25:14.449Z,55.90
2017-10-12T14:27:42.838Z,56.20
2017-10-12T14:30:10.359Z,56.10
2017-10-12T14:32:38.656Z,57.00
2017-10-12T14:35:06.157Z,57.00
2017-10-12T14:37:33.717Z,55.90
2017-10-12T14:40:01.250Z,57.80
2017-10-12T14:42:28.817Z,56.70
2017-10-12T14:44:56.343Z,57.90
2017-10-12T14:47:24.637Z,57.70
2017-10-12T14:49:52.170Z,57.70
2017-10-12T14:52:20.446Z,58.60
2017-10-12T14:54:48.041Z,58.60
2017-10-12T14:57:15.577Z,58.10
2017-10-12T14:59:43.890Z,59.10
2017-10-12T15:02:11.413Z,59.10
2017-10-12T15:04:38.946Z,59.40
2017-10-12T15:07:07.232Z,59.70
2017-10-12T15:09:34.797Z,59.60
2017-10-12T15:12:03.085Z,61.00
2017-10-12T15:14:30.622Z,61.00
2017-10-12T15:16:58.150Z,60.10
2017-10-12T15:19:25.674Z,59.80
2017-10-12T15:21:53.228Z,60.30
2017-10-12T15:24:20.793Z,59.70
2017-10-12T15:26:48.314Z,59.80
2017-10-12T15:29:15.861Z,61.20
2017-10-12T15:31:43.411Z,60.90
2017-10-12T15:34:11.021Z,59.90
2017-10-12T15:36:38.541Z,60.50
2017-10-12T15:39:06.114Z,60.00
2017-10-12T15:41:33.627Z,61.40
2017-10-12T15:44:01.159Z,60.80
2017-10-12T15:46:28.693Z,61.30
2017-10-12T15:48:56.220Z,61.00
2017-10-12T15:51:23.779Z,61.80
2017-10-12T15:53:51.304Z,61.20
2017-10-12T15:56:18.836Z,61.70
2017-10-12T15:58:46.350Z,62.00
2017-10-12T16:01:14.041Z,64.30
2017-10-12T16:03:42.104Z,62.90
2017-10-12T16:06:09.625Z,62.30
2017-10-12T16:08:37.163Z,63.00
2017-10-12T16:11:04.688Z,63.00
2017-10-12T16:13:32.237Z,63.40
2017-10-12T16:15:59.763Z,63.80
2017-10-12T16:18:27.362Z,63.80
2017-10-12T16:20:54.998Z,65.20
2017-10-12T16:23:22.520Z,63.60
2017-10-12T16:25:51.176Z,64.60
2017-10-12T16:28:18.698Z,64.60
2017-10-12T16:30:46.204Z,67.10
2017-10-12T16:33:13.720Z,66.60
2017-10-12T16:35:42.189Z,67.60
2017-10-12T16:38:09.735Z,66.70
2017-10-12T16:40:37.318Z,66.10
2017-10-12T16:43:04.834Z,67.80
2017-10-12T16:45:33.213Z,67.30
2017-10-12T16:48:00.805Z,66.60
2017-10-12T16:52:56.121Z,67.50
2017-10-12T16:57:52.866Z,67.50
2017-10-12T17:00:21.445Z,68.00
2017-10-12T17:02:49.765Z,67.70
2017-10-12T17:05:17.326Z,67.40
2017-10-12T17:07:50.228Z,68.20
2017-10-12T17:10:17.838Z,68.80
2017-10-12T17:12:45.400Z,68.40
2017-10-12T17:15:13.719Z,69.10
2017-10-12T17:17:42.233Z,68.90
2017-10-12T17:20:09.826Z,69.70
2017-10-12T17:22:38.322Z,69.10
2017-10-12T17:25:05.879Z,69.10
2017-10-12T17:27:33.394Z,69.30
2017-10-12T17:30:00.937Z,69.60
2017-10-12T17:32:28.511Z,70.50
2017-10-12T17:34:56.087Z,70.20
2017-10-12T17:37:24.401Z,70.20
2017-10-12T17:39:51.917Z,70.20
2017-10-12T17:42:19.429Z,70.10
2017-10-12T17:44:46.977Z,70.40
2017-10-12T17:47:14.523Z,70.20
2017-10-12T17:49:42.277Z,71.30
2017-10-12T17:52:10.591Z,72.10
2017-10-12T17:54:38.579Z,72.00
2017-10-12T17:57:06.146Z,72.80
2017-10-12T17:59:33.678Z,73.70
2017-10-12T18:02:01.247Z,72.30
2017-10-12T18:06:56.393Z,73.20
2017-10-12T18:09:23.925Z,73.50
2017-10-12T18:16:46.548Z,75.40
2017-10-12T18:19:14.092Z,75.10
2017-10-12T18:21:42.354Z,75.20
2017-10-12T18:24:09.930Z,75.20
2017-10-12T18:26:37.477Z,75.50
2017-10-12T18:29:04.985Z,77.10
2017-10-12T18:31:33.417Z,78.00
2017-10-12T18:34:00.938Z,77.90
2017-10-12T18:36:28.501Z,78.00
2017-10-12T18:38:56.042Z,78.20
2017-10-12T18:41:24.355Z,78.90
2017-10-12T18:43:51.895Z,78.90
2017-10-12T18:46:20.229Z,78.30
2017-10-12T18:48:47.750Z,78.30
2017-10-12T18:51:15.277Z,78.40
2017-10-12T18:53:43.557Z,78.70
2017-10-12T18:56:11.997Z,78.60
2017-10-12T18:58:39.504Z,78.60
2017-10-12T19:01:07.042Z,78.40
2017-10-12T19:03:34.590Z,78.50
2017-10-12T19:06:02.119Z,78.70
2017-10-12T19:08:29.684Z,78.00
2017-10-12T19:10:57.659Z,77.70
2017-10-12T19:13:25.945Z,78.70
2017-10-12T19:15:54.277Z,78.50
2017-10-12T19:18:21.799Z,79.00
2017-10-12T19:20:51.042Z,79.00
2017-10-12T19:23:18.679Z,78.90
2017-10-12T19:25:47.020Z,79.70
2017-10-12T19:28:45.208Z,80.30
2017-10-12T19:30:42.914Z,80.30
2017-10-12T19:33:10.455Z,80.10
2017-10-12T19:35:38.042Z,80.00
2017-10-12T19:38:05.538Z,80.10
2017-10-12T19:40:33.061Z,79.80
2017-10-12T19:43:00.588Z,80.00
2017-10-12T19:45:28.897Z,80.00
2017-10-12T19:47:56.415Z,80.00
2017-10-12T19:50:23.974Z,80.30
2017-10-12T19:52:52.278Z,80.10
2017-10-12T19:55:20.588Z,80.60
2017-10-12T19:57:48.113Z,80.50
2017-10-12T20:00:16.422Z,80.90
2017-10-12T20:02:43.918Z,80.70
2017-10-12T20:05:11.477Z,81.00
2017-10-12T20:07:38.994Z,80.70
2017-10-12T20:10:06.710Z,80.90
2017-10-12T20:12:34.226Z,81.40
2017-10-12T20:15:01.732Z,82.50
2017-10-12T20:17:30.037Z,81.40
2017-10-12T20:19:57.542Z,81.40
2017-10-12T20:22:25.076Z,81.60
2017-10-12T20:24:52.597Z,82.10
2017-10-12T20:27:20.908Z,82.10
2017-10-12T20:29:48.428Z,82.10
2017-10-12T20:32:16.758Z,81.90
2017-10-12T20:34:44.276Z,81.90
2017-10-12T20:37:12.605Z,82.00
2017-10-12T20:39:40.121Z,82.00
2017-10-12T20:42:15.380Z,81.50
2017-10-12T20:44:36.012Z,81.50
2017-10-12T20:47:03.559Z,80.70
2017-10-12T20:49:31.079Z,81.40
2017-10-12T20:51:58.631Z,80.90
2017-10-12T20:54:26.922Z,81.60
2017-10-12T20:56:54.465Z,81.60
2017-10-12T20:59:22.874Z,82.20
2017-10-12T21:01:50.425Z,82.20
2017-10-12T21:04:17.957Z,82.50
2017-10-12T21:06:46.296Z,81.40
2017-10-12T21:09:13.966Z,81.30
2017-10-12T21:11:42.495Z,81.70
2017-10-12T21:14:10.817Z,80.80
2017-10-12T21:16:38.379Z,80.80
2017-10-12T21:19:05.901Z,81.60
2017-10-12T21:21:33.429Z,81.20
2017-10-12T21:24:00.951Z,80.20
2017-10-12T21:26:28.514Z,81.70
2017-10-12T21:28:56.034Z,82.20
2017-10-12T21:31:24.605Z,82.30
2017-10-12T21:33:52.877Z,81.90
2017-10-12T21:36:20.385Z,81.80
2017-10-12T21:38:47.910Z,81.70
2017-10-12T21:41:15.465Z,81.30
2017-10-12T21:43:43.841Z,81.20
2017-10-12T21:46:12.126Z,81.60
2017-10-12T21:48:40.420Z,83.00
2017-10-12T21:51:08.189Z,82.10
2017-10-12T21:53:35.688Z,82.90
2017-10-12T21:56:03.213Z,83.10
2017-10-12T21:58:30.732Z,83.00
2017-10-12T22:00:59.060Z,82.80
2017-10-12T22:03:26.623Z,82.70
2017-10-12T22:05:54.129Z,83.70
2017-10-12T22:08:22.433Z,83.40
2017-10-12T22:10:49.956Z,83.20
2017-10-12T22:13:17.523Z,83.10
2017-10-12T22:15:45.045Z,83.30
2017-10-12T22:18:12.587Z,83.80
2017-10-12T22:20:40.117Z,83.20
2017-10-12T22:23:08.431Z,83.80
2017-10-12T22:25:36.083Z,83.80
2017-10-12T22:28:03.723Z,83.80
2017-10-12T22:30:32.040Z,85.00
2017-10-12T22:32:59.581Z,84.80
2017-10-12T22:35:27.088Z,84.90
2017-10-12T22:37:54.662Z,85.30
2017-10-12T22:40:23.918Z,84.50
2017-10-12T22:42:52.221Z,84.20
2017-10-12T22:45:19.729Z,84.10
2017-10-12T22:47:47.285Z,84.10
2017-10-12T22:50:14.806Z,84.10
2017-10-12T22:52:42.665Z,84.60
2017-10-12T22:55:10.188Z,84.40
2017-10-12T22:57:37.702Z,84.40
2017-10-12T23:00:05.260Z,83.80
2017-10-12T23:02:32.813Z,84.90
2017-10-12T23:05:00.325Z,84.30
2017-10-12T23:07:27.842Z,84.60
2017-10-12T23:09:56.144Z,84.70
2017-10-12T23:12:23.688Z,84.60
2017-10-12T23:14:51.967Z,84.50
2017-10-12T23:17:20.272Z,84.70
2017-10-12T23:19:47.859Z,84.70
2017-10-12T23:22:15.406Z,84.90
2017-10-12T23:24:42.918Z,84.80
2017-10-12T23:27:10.488Z,85.40
2017-10-12T23:29:38.039Z,85.70
2017-10-12T23:32:05.581Z,85.10
2017-10-12T23:34:33.873Z,85.10
2017-10-12T23:37:02.204Z,85.40
2017-10-12T23:39:30.545Z,85.10
2017-10-12T23:41:58.865Z,84.80
2017-10-12T23:44:26.428Z,84.80
2017-10-12T23:46:53.980Z,84.50
2017-10-12T23:49:21.528Z,85.10
2017-10-12T23:51:49.096Z,86.10
2017-10-12T23:54:16.602Z,86.50
2017-10-12T23:56:44.876Z,85.90
2017-10-12T23:59:12.441Z,86.70
